sensor_id;sensor_type;location;lat;lon;timestamp;temperature;humidity
38606;DHT22;24365;48.446;8.850;2023-05-10T00:04:25;14.50;81.80
38606;DHT22;24365;48.446;8.850;2023-05-10T00:09:28;14.60;81.40
38606;DHT22;24365;48.446;8.850;2023-05-10T00:14:29;14.60;80.60
38606;DHT22;24365;48.446;8.850;2023-05-10T00:19:30;14.60;80.80
38606;DHT22;24365;48.446;8.850;2023-05-10T00:24:32;14.50;80.70
38606;DHT22;24365;48.446;8.850;2023-05-10T00:29:33;14.40;81.70
38606;DHT22;24365;48.446;8.850;2023-05-10T00:34:34;14.30;82.30
38606;DHT22;24365;48.446;8.850;2023-05-10T00:39:35;14.20;82.70
38606;DHT22;24365;48.446;8.850;2023-05-10T00:44:36;14.20;82.60
38606;DHT22;24365;48.446;8.850;2023-05-10T00:49:37;14.20;83.00
38606;DHT22;24365;48.446;8.850;2023-05-10T00:54:40;14.10;83.10
38606;DHT22;24365;48.446;8.850;2023-05-10T00:59:42;14.10;82.70
38606;DHT22;24365;48.446;8.850;2023-05-10T01:04:46;14.10;82.50
38606;DHT22;24365;48.446;8.850;2023-05-10T01:09:47;14.00;82.50
38606;DHT22;24365;48.446;8.850;2023-05-10T01:14:48;14.00;82.80
38606;DHT22;24365;48.446;8.850;2023-05-10T01:19:49;13.90;81.40
38606;DHT22;24365;48.446;8.850;2023-05-10T01:46:10;13.50;81.30
38606;DHT22;24365;48.446;8.850;2023-05-10T01:51:23;13.40;82.20
38606;DHT22;24365;48.446;8.850;2023-05-10T01:56:26;13.30;82.90
38606;DHT22;24365;48.446;8.850;2023-05-10T02:01:29;13.40;83.40
38606;DHT22;24365;48.446;8.850;2023-05-10T02:06:30;13.50;82.90
38606;DHT22;24365;48.446;8.850;2023-05-10T02:11:33;13.50;82.90
38606;DHT22;24365;48.446;8.850;2023-05-10T02:16:35;13.40;82.60
38606;DHT22;24365;48.446;8.850;2023-05-10T02:21:38;13.30;83.20
38606;DHT22;24365;48.446;8.850;2023-05-10T02:26:40;13.40;83.30
38606;DHT22;24365;48.446;8.850;2023-05-10T02:31:43;13.40;83.30
38606;DHT22;24365;48.446;8.850;2023-05-10T02:36:45;13.40;82.70
38606;DHT22;24365;48.446;8.850;2023-05-10T02:41:48;13.40;82.50
38606;DHT22;24365;48.446;8.850;2023-05-10T02:46:49;13.40;82.50
38606;DHT22;24365;48.446;8.850;2023-05-10T02:51:57;13.40;82.40
38606;DHT22;24365;48.446;8.850;2023-05-10T02:57:02;13.30;82.50
38606;DHT22;24365;48.446;8.850;2023-05-10T03:02:04;13.30;82.50
38606;DHT22;24365;48.446;8.850;2023-05-10T03:07:06;13.30;82.20
38606;DHT22;24365;48.446;8.850;2023-05-10T03:22:55;13.20;82.30
38606;DHT22;24365;48.446;8.850;2023-05-10T03:27:56;13.10;82.70
38606;DHT22;24365;48.446;8.850;2023-05-10T03:33:04;13.10;82.70
38606;DHT22;24365;48.446;8.850;2023-05-10T03:38:07;13.10;82.60
38606;DHT22;24365;48.446;8.850;2023-05-10T03:43:08;13.10;82.70
38606;DHT22;24365;48.446;8.850;2023-05-10T03:48:10;13.10;82.60
38606;DHT22;24365;48.446;8.850;2023-05-10T03:53:11;13.00;82.40
38606;DHT22;24365;48.446;8.850;2023-05-10T03:58:12;13.00;82.40
38606;DHT22;24365;48.446;8.850;2023-05-10T04:03:14;13.00;82.60
38606;DHT22;24365;48.446;8.850;2023-05-10T04:08:15;12.90;82.70
38606;DHT22;24365;48.446;8.850;2023-05-10T04:13:17;12.90;83.20
38606;DHT22;24365;48.446;8.850;2023-05-10T04:18:19;12.90;83.20
38606;DHT22;24365;48.446;8.850;2023-05-10T04:23:20;12.80;83.60
38606;DHT22;24365;48.446;8.850;2023-05-10T04:28:21;12.80;83.80
38606;DHT22;24365;48.446;8.850;2023-05-10T04:33:23;12.90;83.80
38606;DHT22;24365;48.446;8.850;2023-05-10T04:38:24;12.90;83.80
38606;DHT22;24365;48.446;8.850;2023-05-10T04:43:26;12.90;84.30
38606;DHT22;24365;48.446;8.850;2023-05-10T04:48:27;13.00;83.80
38606;DHT22;24365;48.446;8.850;2023-05-10T04:53:29;12.90;83.20
38606;DHT22;24365;48.446;8.850;2023-05-10T04:58:30;12.90;83.30
38606;DHT22;24365;48.446;8.850;2023-05-10T05:03:31;12.90;83.50
38606;DHT22;24365;48.446;8.850;2023-05-10T05:08:33;12.90;83.10
38606;DHT22;24365;48.446;8.850;2023-05-10T05:13:34;12.90;83.40
38606;DHT22;24365;48.446;8.850;2023-05-10T05:18:35;13.00;83.60
38606;DHT22;24365;48.446;8.850;2023-05-10T05:23:36;13.00;83.10
38606;DHT22;24365;48.446;8.850;2023-05-10T05:28:37;13.00;83.00
38606;DHT22;24365;48.446;8.850;2023-05-10T05:33:39;13.10;83.00
38606;DHT22;24365;48.446;8.850;2023-05-10T05:38:40;13.10;83.40
38606;DHT22;24365;48.446;8.850;2023-05-10T05:43:41;13.10;83.80
38606;DHT22;24365;48.446;8.850;2023-05-10T05:48:42;13.20;83.20
38606;DHT22;24365;48.446;8.850;2023-05-10T05:53:43;13.20;83.30
38606;DHT22;24365;48.446;8.850;2023-05-10T05:58:44;13.30;83.60
38606;DHT22;24365;48.446;8.850;2023-05-10T06:03:45;13.30;83.60
38606;DHT22;24365;48.446;8.850;2023-05-10T06:08:46;13.50;82.60
38606;DHT22;24365;48.446;8.850;2023-05-10T06:13:47;13.40;83.00
38606;DHT22;24365;48.446;8.850;2023-05-10T06:18:48;13.50;82.90
38606;DHT22;24365;48.446;8.850;2023-05-10T06:23:49;13.60;82.90
38606;DHT22;24365;48.446;8.850;2023-05-10T06:28:50;13.70;82.00
38606;DHT22;24365;48.446;8.850;2023-05-10T06:33:51;13.80;81.70
38606;DHT22;24365;48.446;8.850;2023-05-10T06:38:53;13.80;80.90
38606;DHT22;24365;48.446;8.850;2023-05-10T06:43:54;13.70;81.50
38606;DHT22;24365;48.446;8.850;2023-05-10T06:48:55;13.70;81.70
38606;DHT22;24365;48.446;8.850;2023-05-10T06:53:56;13.60;81.50
38606;DHT22;24365;48.446;8.850;2023-05-10T06:58:57;13.60;82.20
38606;DHT22;24365;48.446;8.850;2023-05-10T07:03:58;13.60;82.00
38606;DHT22;24365;48.446;8.850;2023-05-10T07:08:59;13.70;82.20
38606;DHT22;24365;48.446;8.850;2023-05-10T07:14:01;13.70;82.20
38606;DHT22;24365;48.446;8.850;2023-05-10T07:19:02;13.80;82.70
38606;DHT22;24365;48.446;8.850;2023-05-10T07:24:03;13.90;82.10
38606;DHT22;24365;48.446;8.850;2023-05-10T07:29:04;14.00;81.50
38606;DHT22;24365;48.446;8.850;2023-05-10T07:34:05;14.20;81.50
38606;DHT22;24365;48.446;8.850;2023-05-10T07:39:06;14.30;79.70
38606;DHT22;24365;48.446;8.850;2023-05-10T07:44:07;14.50;79.40
38606;DHT22;24365;48.446;8.850;2023-05-10T07:49:08;14.50;78.40
38606;DHT22;24365;48.446;8.850;2023-05-10T07:54:09;14.50;78.20
38606;DHT22;24365;48.446;8.850;2023-05-10T07:59:15;14.60;76.60
38606;DHT22;24365;48.446;8.850;2023-05-10T08:04:16;14.70;75.60
38606;DHT22;24365;48.446;8.850;2023-05-10T08:09:17;15.00;75.80
38606;DHT22;24365;48.446;8.850;2023-05-10T08:14:18;15.20;74.50
38606;DHT22;24365;48.446;8.850;2023-05-10T08:19:19;15.60;72.90
38606;DHT22;24365;48.446;8.850;2023-05-10T08:24:22;15.70;71.10
38606;DHT22;24365;48.446;8.850;2023-05-10T08:29:23;15.80;69.40
38606;DHT22;24365;48.446;8.850;2023-05-10T08:34:24;15.90;67.00
38606;DHT22;24365;48.446;8.850;2023-05-10T08:39:25;16.00;66.60
38606;DHT22;24365;48.446;8.850;2023-05-10T08:44:26;16.10;65.10
38606;DHT22;24365;48.446;8.850;2023-05-10T08:49:31;16.20;63.50
38606;DHT22;24365;48.446;8.850;2023-05-10T08:54:33;16.10;63.00
38606;DHT22;24365;48.446;8.850;2023-05-10T08:59:34;16.00;63.10
38606;DHT22;24365;48.446;8.850;2023-05-10T09:04:35;15.90;63.60
38606;DHT22;24365;48.446;8.850;2023-05-10T09:09:36;15.80;64.70
38606;DHT22;24365;48.446;8.850;2023-05-10T09:14:37;15.70;64.00
38606;DHT22;24365;48.446;8.850;2023-05-10T09:19:39;15.50;64.60
38606;DHT22;24365;48.446;8.850;2023-05-10T09:24:42;15.20;65.30
38606;DHT22;24365;48.446;8.850;2023-05-10T09:29:45;15.00;65.70
38606;DHT22;24365;48.446;8.850;2023-05-10T09:34:49;14.80;68.20
38606;DHT22;24365;48.446;8.850;2023-05-10T09:39:54;14.80;69.70
38606;DHT22;24365;48.446;8.850;2023-05-10T09:45:06;14.80;69.00
38606;DHT22;24365;48.446;8.850;2023-05-10T09:50:07;14.80;67.70
38606;DHT22;24365;48.446;8.850;2023-05-10T09:55:09;15.10;69.30
38606;DHT22;24365;48.446;8.850;2023-05-10T10:00:10;15.60;68.00
38606;DHT22;24365;48.446;8.850;2023-05-10T10:05:15;16.10;65.60
38606;DHT22;24365;48.446;8.850;2023-05-10T10:10:17;16.50;64.60
38606;DHT22;24365;48.446;8.850;2023-05-10T10:15:19;16.60;60.80
38606;DHT22;24365;48.446;8.850;2023-05-10T10:20:22;16.80;59.00
38606;DHT22;24365;48.446;8.850;2023-05-10T10:25:24;17.00;57.80
38606;DHT22;24365;48.446;8.850;2023-05-10T10:35:30;17.30;55.10
38606;DHT22;24365;48.446;8.850;2023-05-10T10:40:33;17.50;55.20
38606;DHT22;24365;48.446;8.850;2023-05-10T10:45:34;17.50;53.80
38606;DHT22;24365;48.446;8.850;2023-05-10T10:50:44;17.20;53.60
38606;DHT22;24365;48.446;8.850;2023-05-10T10:55:47;16.60;50.30
38606;DHT22;24365;48.446;8.850;2023-05-10T11:00:49;16.00;50.70
38606;DHT22;24365;48.446;8.850;2023-05-10T11:05:57;15.50;53.50
38606;DHT22;24365;48.446;8.850;2023-05-10T11:11:04;15.40;53.10
38606;DHT22;24365;48.446;8.850;2023-05-10T11:16:24;15.10;56.00
38606;DHT22;24365;48.446;8.850;2023-05-10T11:21:26;14.80;59.90
38606;DHT22;24365;48.446;8.850;2023-05-10T11:26:32;14.70;62.60
38606;DHT22;24365;48.446;8.850;2023-05-10T11:31:34;14.60;66.80
38606;DHT22;24365;48.446;8.850;2023-05-10T11:36:36;14.40;67.40
38606;DHT22;24365;48.446;8.850;2023-05-10T11:41:37;14.30;67.90
38606;DHT22;24365;48.446;8.850;2023-05-10T11:46:38;14.30;67.30
38606;DHT22;24365;48.446;8.850;2023-05-10T11:51:39;14.40;66.80
38606;DHT22;24365;48.446;8.850;2023-05-10T11:56:40;14.50;67.40
38606;DHT22;24365;48.446;8.850;2023-05-10T12:01:42;14.70;65.40
38606;DHT22;24365;48.446;8.850;2023-05-10T12:06:46;14.80;65.40
38606;DHT22;24365;48.446;8.850;2023-05-10T12:11:47;14.90;65.10
38606;DHT22;24365;48.446;8.850;2023-05-10T12:16:48;14.90;63.90
38606;DHT22;24365;48.446;8.850;2023-05-10T12:21:50;15.10;63.00
38606;DHT22;24365;48.446;8.850;2023-05-10T12:26:51;15.20;64.10
38606;DHT22;24365;48.446;8.850;2023-05-10T12:31:57;15.60;63.40
38606;DHT22;24365;48.446;8.850;2023-05-10T12:36:59;15.60;61.40
38606;DHT22;24365;48.446;8.850;2023-05-10T12:42:01;16.00;62.40
38606;DHT22;24365;48.446;8.850;2023-05-10T12:47:02;16.10;59.20
38606;DHT22;24365;48.446;8.850;2023-05-10T12:52:03;16.20;59.60
38606;DHT22;24365;48.446;8.850;2023-05-10T12:57:04;16.20;56.70
38606;DHT22;24365;48.446;8.850;2023-05-10T13:02:06;16.30;53.40
38606;DHT22;24365;48.446;8.850;2023-05-10T13:07:08;16.30;55.30
38606;DHT22;24365;48.446;8.850;2023-05-10T13:12:11;16.40;54.10
38606;DHT22;24365;48.446;8.850;2023-05-10T13:17:12;16.50;53.50
38606;DHT22;24365;48.446;8.850;2023-05-10T13:22:13;16.80;53.40
38606;DHT22;24365;48.446;8.850;2023-05-10T13:27:14;17.20;52.90
38606;DHT22;24365;48.446;8.850;2023-05-10T13:32:15;17.40;48.60
38606;DHT22;24365;48.446;8.850;2023-05-10T13:37:16;17.40;50.40
38606;DHT22;24365;48.446;8.850;2023-05-10T13:42:18;17.50;50.00
38606;DHT22;24365;48.446;8.850;2023-05-10T13:47:19;17.50;46.90
38606;DHT22;24365;48.446;8.850;2023-05-10T13:52:20;17.50;46.10
38606;DHT22;24365;48.446;8.850;2023-05-10T13:57:21;17.30;45.80
38606;DHT22;24365;48.446;8.850;2023-05-10T14:02:22;17.40;44.70
38606;DHT22;24365;48.446;8.850;2023-05-10T14:07:24;17.50;46.80
38606;DHT22;24365;48.446;8.850;2023-05-10T14:12:25;17.30;45.70
38606;DHT22;24365;48.446;8.850;2023-05-10T14:17:26;17.40;47.60
38606;DHT22;24365;48.446;8.850;2023-05-10T14:22:27;17.50;48.40
38606;DHT22;24365;48.446;8.850;2023-05-10T14:27:29;17.50;44.70
38606;DHT22;24365;48.446;8.850;2023-05-10T14:32:31;17.50;47.40
38606;DHT22;24365;48.446;8.850;2023-05-10T14:37:32;17.30;43.90
38606;DHT22;24365;48.446;8.850;2023-05-10T14:42:33;17.30;46.90
38606;DHT22;24365;48.446;8.850;2023-05-10T14:47:35;17.20;47.30
38606;DHT22;24365;48.446;8.850;2023-05-10T14:52:36;16.90;44.60
38606;DHT22;24365;48.446;8.850;2023-05-10T14:57:37;16.80;47.10
38606;DHT22;24365;48.446;8.850;2023-05-10T15:02:38;16.60;47.80
38606;DHT22;24365;48.446;8.850;2023-05-10T15:07:39;16.40;46.10
38606;DHT22;24365;48.446;8.850;2023-05-10T15:12:42;16.20;47.20
38606;DHT22;24365;48.446;8.850;2023-05-10T15:17:43;16.10;46.40
38606;DHT22;24365;48.446;8.850;2023-05-10T15:22:44;16.10;47.80
38606;DHT22;24365;48.446;8.850;2023-05-10T15:27:45;15.90;49.10
38606;DHT22;24365;48.446;8.850;2023-05-10T15:32:46;15.80;51.30
38606;DHT22;24365;48.446;8.850;2023-05-10T15:37:48;15.80;51.70
38606;DHT22;24365;48.446;8.850;2023-05-10T15:42:51;15.60;50.30
38606;DHT22;24365;48.446;8.850;2023-05-10T15:47:52;15.60;50.90
38606;DHT22;24365;48.446;8.850;2023-05-10T15:52:53;15.60;51.40
38606;DHT22;24365;48.446;8.850;2023-05-10T15:57:55;15.80;52.50
38606;DHT22;24365;48.446;8.850;2023-05-10T16:02:57;16.00;52.70
38606;DHT22;24365;48.446;8.850;2023-05-10T16:08:00;15.90;50.90
38606;DHT22;24365;48.446;8.850;2023-05-10T16:13:01;15.80;52.00
38606;DHT22;24365;48.446;8.850;2023-05-10T16:18:04;15.70;51.50
38606;DHT22;24365;48.446;8.850;2023-05-10T16:23:09;15.60;49.90
38606;DHT22;24365;48.446;8.850;2023-05-10T16:28:11;15.50;50.80
38606;DHT22;24365;48.446;8.850;2023-05-10T16:33:12;15.40;50.60
38606;DHT22;24365;48.446;8.850;2023-05-10T16:38:13;15.20;51.80
38606;DHT22;24365;48.446;8.850;2023-05-10T16:43:14;15.10;52.30
38606;DHT22;24365;48.446;8.850;2023-05-10T16:48:15;15.10;53.20
38606;DHT22;24365;48.446;8.850;2023-05-10T16:53:18;14.90;53.60
38606;DHT22;24365;48.446;8.850;2023-05-10T16:58:19;15.00;55.40
38606;DHT22;24365;48.446;8.850;2023-05-10T17:03:22;14.90;55.00
38606;DHT22;24365;48.446;8.850;2023-05-10T17:08:23;15.00;54.90
38606;DHT22;24365;48.446;8.850;2023-05-10T17:13:24;14.90;54.60
38606;DHT22;24365;48.446;8.850;2023-05-10T17:18:30;14.90;52.70
38606;DHT22;24365;48.446;8.850;2023-05-10T17:23:32;14.80;55.00
38606;DHT22;24365;48.446;8.850;2023-05-10T17:28:33;14.80;53.70
38606;DHT22;24365;48.446;8.850;2023-05-10T17:33:34;14.70;55.30
38606;DHT22;24365;48.446;8.850;2023-05-10T17:38:36;14.70;55.60
38606;DHT22;24365;48.446;8.850;2023-05-10T17:43:37;14.70;55.10
38606;DHT22;24365;48.446;8.850;2023-05-10T17:48:38;14.50;54.90
38606;DHT22;24365;48.446;8.850;2023-05-10T17:53:40;14.50;57.10
38606;DHT22;24365;48.446;8.850;2023-05-10T17:58:41;14.50;57.10
38606;DHT22;24365;48.446;8.850;2023-05-10T18:03:43;14.50;58.60
38606;DHT22;24365;48.446;8.850;2023-05-10T18:14:17;14.50;60.50
38606;DHT22;24365;48.446;8.850;2023-05-10T18:19:18;14.50;61.60
38606;DHT22;24365;48.446;8.850;2023-05-10T18:24:20;14.50;62.50
38606;DHT22;24365;48.446;8.850;2023-05-10T18:29:35;14.40;62.50
38606;DHT22;24365;48.446;8.850;2023-05-10T18:34:57;14.30;60.40
38606;DHT22;24365;48.446;8.850;2023-05-10T18:40:35;14.20;61.80
38606;DHT22;24365;48.446;8.850;2023-05-10T18:51:31;14.00;62.70
38606;DHT22;24365;48.446;8.850;2023-05-10T18:56:32;13.80;63.60
38606;DHT22;24365;48.446;8.850;2023-05-10T19:01:33;13.70;65.20
38606;DHT22;24365;48.446;8.850;2023-05-10T19:06:35;13.70;66.70
38606;DHT22;24365;48.446;8.850;2023-05-10T19:11:36;13.70;66.80
38606;DHT22;24365;48.446;8.850;2023-05-10T19:16:38;13.60;66.70
38606;DHT22;24365;48.446;8.850;2023-05-10T19:21:39;13.50;67.50
38606;DHT22;24365;48.446;8.850;2023-05-10T19:26:40;13.50;68.10
38606;DHT22;24365;48.446;8.850;2023-05-10T19:31:44;13.50;68.60
38606;DHT22;24365;48.446;8.850;2023-05-10T19:36:45;13.50;68.30
38606;DHT22;24365;48.446;8.850;2023-05-10T19:41:46;13.40;68.40
38606;DHT22;24365;48.446;8.850;2023-05-10T19:46:47;13.40;68.80
38606;DHT22;24365;48.446;8.850;2023-05-10T19:51:48;13.50;68.70
38606;DHT22;24365;48.446;8.850;2023-05-10T19:56:49;13.40;68.50
38606;DHT22;24365;48.446;8.850;2023-05-10T20:01:50;13.40;68.80
38606;DHT22;24365;48.446;8.850;2023-05-10T20:06:51;13.30;68.50
38606;DHT22;24365;48.446;8.850;2023-05-10T20:11:53;13.30;69.10
38606;DHT22;24365;48.446;8.850;2023-05-10T20:16:53;13.20;69.10
38606;DHT22;24365;48.446;8.850;2023-05-10T20:21:55;13.10;69.80
38606;DHT22;24365;48.446;8.850;2023-05-10T20:26:58;13.10;69.70
38606;DHT22;24365;48.446;8.850;2023-05-10T20:32:00;13.10;70.00
38606;DHT22;24365;48.446;8.850;2023-05-10T20:37:01;13.00;70.20
38606;DHT22;24365;48.446;8.850;2023-05-10T20:42:02;12.90;70.50
38606;DHT22;24365;48.446;8.850;2023-05-10T20:47:03;12.70;70.50
38606;DHT22;24365;48.446;8.850;2023-05-10T20:52:04;12.70;71.10
38606;DHT22;24365;48.446;8.850;2023-05-10T20:57:05;12.80;70.70
38606;DHT22;24365;48.446;8.850;2023-05-10T21:02:07;12.60;69.30
38606;DHT22;24365;48.446;8.850;2023-05-10T21:07:08;12.40;71.30
38606;DHT22;24365;48.446;8.850;2023-05-10T21:12:09;12.30;72.10
38606;DHT22;24365;48.446;8.850;2023-05-10T21:17:10;12.30;71.60
38606;DHT22;24365;48.446;8.850;2023-05-10T21:22:11;12.30;72.10
38606;DHT22;24365;48.446;8.850;2023-05-10T21:27:14;12.40;71.60
38606;DHT22;24365;48.446;8.850;2023-05-10T21:32:15;12.30;71.30
38606;DHT22;24365;48.446;8.850;2023-05-10T21:37:16;12.30;71.60
38606;DHT22;24365;48.446;8.850;2023-05-10T21:42:17;12.20;71.10
38606;DHT22;24365;48.446;8.850;2023-05-10T21:47:19;11.90;72.30
38606;DHT22;24365;48.446;8.850;2023-05-10T21:52:20;11.80;72.20
38606;DHT22;24365;48.446;8.850;2023-05-10T21:57:21;11.90;73.30
38606;DHT22;24365;48.446;8.850;2023-05-10T22:02:23;11.90;73.60
38606;DHT22;24365;48.446;8.850;2023-05-10T22:07:25;11.90;73.50
38606;DHT22;24365;48.446;8.850;2023-05-10T22:12:26;11.90;73.10
38606;DHT22;24365;48.446;8.850;2023-05-10T22:17:27;11.90;73.10
38606;DHT22;24365;48.446;8.850;2023-05-10T22:22:28;11.80;73.50
38606;DHT22;24365;48.446;8.850;2023-05-10T22:27:29;11.70;73.50
38606;DHT22;24365;48.446;8.850;2023-05-10T22:32:31;11.70;72.90
38606;DHT22;24365;48.446;8.850;2023-05-10T22:37:32;11.70;73.30
38606;DHT22;24365;48.446;8.850;2023-05-10T22:42:34;11.70;73.20
38606;DHT22;24365;48.446;8.850;2023-05-10T22:47:35;11.50;73.20
38606;DHT22;24365;48.446;8.850;2023-05-10T22:52:36;11.50;74.10
38606;DHT22;24365;48.446;8.850;2023-05-10T22:57:39;11.40;74.00
38606;DHT22;24365;48.446;8.850;2023-05-10T23:02:40;11.40;74.10
38606;DHT22;24365;48.446;8.850;2023-05-10T23:07:41;11.40;74.40
38606;DHT22;24365;48.446;8.850;2023-05-10T23:12:42;11.30;74.30
38606;DHT22;24365;48.446;8.850;2023-05-10T23:17:43;11.30;74.90
38606;DHT22;24365;48.446;8.850;2023-05-10T23:22:44;11.30;74.50
38606;DHT22;24365;48.446;8.850;2023-05-10T23:27:45;11.30;74.50
38606;DHT22;24365;48.446;8.850;2023-05-10T23:33:06;11.10;74.70
38606;DHT22;24365;48.446;8.850;2023-05-10T23:38:07;11.20;75.70
38606;DHT22;24365;48.446;8.850;2023-05-10T23:43:09;11.20;75.00
38606;DHT22;24365;48.446;8.850;2023-05-10T23:48:10;11.00;74.80
38606;DHT22;24365;48.446;8.850;2023-05-10T23:53:11;11.00;75.20
38606;DHT22;24365;48.446;8.850;2023-05-10T23:58:12;11.00;75.80
